Angola, Louisiana
Current Conditions -  °F | °C
As of 4:15 AM on Saturday 22 Nov 2014 (Local Time) from KHZR Reporting Station
Overcast Overcast  
Wind Chill: 13°   Ceiling: 3200
Heat Index: 13°   Visibility: 10mi
Dew Point: 10°   Wind: 6mph
Humidity: 84%   Direction: 80°E
Pressure: 30.21"   Gusts: NA
Location:  30.95°N, 91.57°W
Report Text: KHZR 221015Z AUTO 08005KT 10SM OVC032 13/10 A3021 RMK AO2 LTG DSNT W AND NW T01260100
Loading
Personal Weather Stations






























Interactive Weather Map New forecast layout! Learn more

10-Day Weather Forecast

Advertisements
Track Severe Weather on mobile